Time;durP1;ratioP1;P1;durP2;ratioP2;P2;SDS_P1;SDS_P2;PMS_P1;PMS_P2;Temp;Humidity;BMP_temperature;BMP_pressure;BME280_temperature;BME280_humidity;BME280_pressure;Samples;Min_cycle;Max_cycle;Signal;HPM_P1;HPM_P2
2022/07/19 00:01:43;;;;;;;0.20;0.00;;;24.60;99.90;;;;;;25700484;23;20217;-69
2022/07/19 00:11:47;;;;;;;0.20;0.00;;;24.50;99.90;;;;;;25701135;23;20208;-69
2022/07/19 00:21:52;;;;;;;0.20;0.00;;;24.50;99.90;;;;;;25701516;23;20225;-70
2022/07/19 00:31:56;;;;;;;0.20;0.00;;;24.40;99.90;;;;;;25700754;23;20182;-71
2022/07/19 00:42:02;;;;;;;0.20;0.00;;;24.20;99.90;;;;;;25700081;23;20162;-70
2022/07/19 00:52:07;;;;;;;0.20;0.00;;;24.20;99.90;;;;;;25700154;23;20182;-70
2022/07/19 01:02:14;;;;;;;0.20;0.00;;;24.00;99.90;;;;;;25699419;23;20214;-70
2022/07/19 01:12:19;;;;;;;0.20;0.00;;;23.90;99.90;;;;;;25699630;23;20245;-69
2022/07/19 01:22:24;;;;;;;0.20;0.00;;;23.80;99.90;;;;;;25699362;23;20170;-70
2022/07/19 01:32:28;;;;;;;0.20;0.00;;;23.80;99.90;;;;;;25697332;23;20202;-70
2022/07/19 01:42:33;;;;;;;0.20;0.00;;;23.70;99.90;;;;;;25697310;23;20170;-67
2022/07/19 01:52:37;;;;;;;0.20;0.00;;;23.40;99.90;;;;;;25697369;23;20182;-69
2022/07/19 02:02:47;;;;;;;0.20;0.00;;;23.40;99.90;;;;;;25670789;23;20198;-70
2022/07/19 02:12:51;;;;;;;0.20;0.00;;;23.40;99.90;;;;;;25696460;23;20197;-70
2022/07/19 02:22:56;;;;;;;0.20;0.00;;;23.30;99.90;;;;;;25670478;23;20236;-70
2022/07/19 02:33:00;;;;;;;0.20;0.10;;;23.30;99.90;;;;;;25695895;23;20190;-69
2022/07/19 02:43:05;;;;;;;0.20;0.00;;;23.10;99.90;;;;;;25695983;23;20174;-69
2022/07/19 02:53:10;;;;;;;0.20;0.00;;;23.10;99.90;;;;;;25700809;23;20202;-69
2022/07/19 03:13:36;;;;;;;0.20;0.00;;;23.00;99.90;;;;;;25677431;23;20193;-68
2022/07/19 03:23:42;;;;;;;0.20;0.00;;;22.80;99.90;;;;;;25702901;23;20189;-69
2022/07/19 03:33:46;;;;;;;0.20;0.00;;;22.80;99.90;;;;;;25651550;23;20193;-71
2022/07/19 03:43:51;;;;;;;0.20;0.00;;;22.80;99.90;;;;;;25701897;23;20166;-70
2022/07/19 03:53:55;;;;;;;0.20;0.00;;;22.90;99.90;;;;;;25675398;23;20186;-69
2022/07/19 04:04:00;;;;;;;0.20;0.00;;;22.90;99.90;;;;;;25674481;23;20194;-69
2022/07/19 04:14:04;;;;;;;0.20;0.00;;;22.90;99.90;;;;;;25674755;23;20193;-69
2022/07/19 04:24:09;;;;;;;0.20;0.00;;;22.80;99.90;;;;;;25701131;23;20166;-70
2022/07/19 04:34:13;;;;;;;0.20;0.00;;;22.90;99.90;;;;;;25672436;23;20197;-69
2022/07/19 04:44:19;;;;;;;0.20;0.10;;;22.80;99.90;;;;;;25697340;23;20178;-69
2022/07/19 04:54:23;;;;;;;0.20;0.00;;;22.70;99.90;;;;;;25697797;23;20186;-69
2022/07/19 05:04:28;;;;;;;0.20;0.00;;;22.70;99.90;;;;;;25697116;23;20209;-69
2022/07/19 05:14:33;;;;;;;0.20;0.00;;;23.00;99.90;;;;;;25670610;23;20289;-69
2022/07/19 05:24:38;;;;;;;0.20;0.00;;;23.00;99.90;;;;;;25696652;23;20221;-69
2022/07/19 05:34:42;;;;;;;0.20;0.00;;;23.20;99.90;;;;;;25695137;23;20217;-69
2022/07/19 05:44:47;;;;;;;0.20;0.00;;;23.20;99.90;;;;;;25696364;23;20162;-70
2022/07/19 05:54:51;;;;;;;0.20;0.00;;;23.50;99.90;;;;;;25643655;23;20205;-70
2022/07/19 06:04:57;;;;;;;0.20;0.00;;;23.90;99.90;;;;;;25692994;23;20201;-69
2022/07/19 06:15:01;;;;;;;0.20;0.00;;;24.20;99.90;;;;;;25667709;23;20194;-69
2022/07/19 06:25:08;;;;;;;0.20;0.00;;;24.30;99.90;;;;;;25666230;23;20170;-68
2022/07/19 06:35:12;;;;;;;0.20;0.00;;;24.60;99.90;;;;;;25692874;23;20336;-70
2022/07/19 06:45:17;;;;;;;0.20;0.10;;;25.00;99.90;;;;;;25664928;23;20194;-70
2022/07/19 06:55:21;;;;;;;0.20;0.00;;;25.40;99.90;;;;;;25691225;23;20233;-69
2022/07/19 07:05:27;;;;;;;0.20;0.00;;;25.80;99.90;;;;;;25689648;23;20201;-69
2022/07/19 07:15:31;;;;;;;0.20;0.00;;;26.00;99.90;;;;;;25690377;23;20217;-64
2022/07/19 07:25:37;;;;;;;0.20;0.00;;;25.90;99.90;;;;;;25689861;23;20318;-70
2022/07/19 07:35:41;;;;;;;0.20;0.00;;;26.10;99.90;;;;;;25664570;23;20190;-69
2022/07/19 07:45:46;;;;;;;0.20;0.00;;;26.10;99.90;;;;;;25695880;23;20178;-70
2022/07/19 07:55:50;;;;;;;0.20;0.00;;;26.40;99.90;;;;;;25696997;23;20198;-68
2022/07/19 08:05:57;;;;;;;0.20;0.00;;;26.60;99.90;;;;;;25695594;23;20217;-67
2022/07/19 08:16:01;;;;;;;0.20;0.00;;;26.60;99.90;;;;;;25696495;23;20234;-69
2022/07/19 08:26:07;;;;;;;0.20;0.00;;;26.70;99.90;;;;;;25696406;23;20218;-69
2022/07/19 08:36:10;;;;;;;0.20;0.00;;;26.90;99.90;;;;;;25697690;23;20699;-70
2022/07/19 08:46:16;;;;;;;0.20;0.00;;;27.00;99.90;;;;;;25669904;23;20170;-69
2022/07/19 09:06:45;;;;;;;0.20;0.00;;;27.10;99.90;;;;;;25661502;23;20217;-69
2022/07/19 09:16:55;;;;;;;0.20;0.10;;;27.30;99.90;;;;;;25683686;23;20190;-70
2022/07/19 09:27:03;;;;;;;0.20;0.10;;;27.30;99.90;;;;;;25681576;23;20170;-70
2022/07/19 09:37:12;;;;;;;0.20;0.00;;;27.60;99.90;;;;;;25683468;23;20198;-69
2022/07/19 09:47:32;;;;;;;0.20;0.00;;;27.70;99.90;;;;;;25656077;23;20162;-70
2022/07/19 09:57:39;;;;;;;0.20;0.00;;;27.80;99.90;;;;;;25655627;23;20197;-69
2022/07/19 10:07:44;;;;;;;0.20;0.00;;;28.10;99.90;;;;;;25681275;23;20205;-68
2022/07/19 10:18:09;;;;;;;0.20;0.00;;;28.40;99.90;;;;;;25654624;23;20190;-69
2022/07/19 10:28:33;;;;;;;0.20;0.00;;;28.60;99.90;;;;;;25654556;23;20170;-69
2022/07/19 10:39:26;;;;;;;0.20;0.00;;;29.00;99.90;;;;;;25629080;23;20190;-68
2022/07/19 10:49:45;;;;;;;0.20;0.00;;;29.20;99.90;;;;;;25651462;23;20170;-68
2022/07/19 10:59:50;;;;;;;0.20;0.00;;;29.40;99.90;;;;;;25650704;23;20198;-70
2022/07/19 11:09:57;;;;;;;0.20;0.03;;;29.70;99.90;;;;;;25677430;23;20190;-69
2022/07/19 11:20:10;;;;;;;0.20;0.00;;;30.50;99.90;;;;;;25660383;23;20194;-68
2022/07/19 11:30:16;;;;;;;0.20;0.00;;;30.50;99.90;;;;;;25687704;23;20934;-68
2022/07/19 11:40:20;;;;;;;0.20;0.00;;;31.50;99.90;;;;;;25686703;23;20186;-70
2022/07/19 11:50:26;;;;;;;0.20;0.00;;;32.10;99.90;;;;;;25686190;23;20166;-69
2022/07/19 12:00:33;;;;;;;0.20;0.00;;;32.70;99.90;;;;;;25656816;23;20309;-70
2022/07/19 12:10:41;;;;;;;0.20;0.10;;;32.60;99.90;;;;;;25654957;23;20170;-70
2022/07/19 12:20:46;;;;;;;0.20;0.00;;;33.10;99.90;;;;;;25680524;23;20190;-71
2022/07/19 12:31:03;;;;;;;0.20;0.00;;;33.00;99.90;;;;;;25678502;23;20181;-70
2022/07/19 12:41:08;;;;;;;0.25;0.25;;;33.60;99.90;;;;;;25644811;23;20198;-72
2022/07/19 12:51:13;;;;;;;0.20;0.00;;;33.70;99.90;;;;;;25680911;23;20170;-69
2022/07/19 13:01:17;;;;;;;0.20;0.00;;;34.00;99.90;;;;;;25679093;23;20253;-69
2022/07/19 13:11:22;;;;;;;0.30;0.30;;;34.70;99.90;;;;;;25679843;23;20273;-69
2022/07/19 13:21:27;;;;;;;0.20;0.00;;;35.10;99.90;;;;;;25680418;23;20270;-68
2022/07/19 13:31:32;;;;;;;0.20;0.00;;;35.80;99.90;;;;;;25678207;23;20186;-69
2022/07/19 13:41:37;;;;;;;0.20;0.00;;;35.40;99.90;;;;;;25653077;23;20190;-69
2022/07/19 13:51:43;;;;;;;0.20;0.00;;;35.30;99.90;;;;;;25680168;23;20162;-69
2022/07/19 14:01:46;;;;;;;0.20;0.00;;;35.60;99.90;;;;;;25650205;23;20204;-70
2022/07/19 14:11:52;;;;;;;0.20;0.00;;;35.50;99.90;;;;;;25650273;23;20186;-68
2022/07/19 14:21:58;;;;;;;0.20;0.00;;;35.70;99.90;;;;;;25677034;23;20201;-70
2022/07/19 14:32:03;;;;;;;0.20;0.00;;;36.40;99.90;;;;;;25675727;23;20189;-69
2022/07/19 14:42:07;;;;;;;0.20;0.00;;;35.40;99.90;;;;;;25650093;23;20190;-69
2022/07/19 14:52:13;;;;;;;0.20;0.00;;;35.80;99.90;;;;;;25683972;23;20193;-70
2022/07/19 15:02:17;;;;;;;0.20;0.00;;;35.60;99.90;;;;;;25685853;23;20300;-70
2022/07/19 15:12:22;;;;;;;0.20;0.00;;;36.00;99.90;;;;;;25684763;23;20325;-69
2022/07/19 15:22:26;;;;;;;0.20;0.00;;;35.60;99.90;;;;;;25686666;23;20212;-67
2022/07/19 15:32:31;;;;;;;0.20;0.00;;;35.90;99.90;;;;;;25686283;23;20182;-68
2022/07/19 15:42:43;;;;;;;0.20;0.00;;;35.70;99.90;;;;;;25660781;23;20217;-70
2022/07/19 15:52:49;;;;;;;0.20;0.00;;;35.90;99.90;;;;;;25685808;23;20258;-69
2022/07/19 16:02:52;;;;;;;0.20;0.00;;;35.40;99.90;;;;;;25684615;23;20286;-69
2022/07/19 16:12:58;;;;;;;0.20;0.00;;;35.50;99.90;;;;;;25684299;23;20213;-71
2022/07/19 16:23:02;;;;;;;0.20;0.00;;;33.90;99.90;;;;;;25682956;23;20186;-71
2022/07/19 16:33:07;;;;;;;0.20;0.00;;;32.30;99.90;;;;;;25689264;23;20185;-68
2022/07/19 16:43:11;;;;;;;0.20;0.00;;;31.70;99.90;;;;;;25693626;23;20256;-68
2022/07/19 16:53:17;;;;;;;0.20;0.00;;;31.50;99.90;;;;;;25695484;23;20170;-68
2022/07/19 17:03:20;;;;;;;0.20;0.00;;;31.30;99.90;;;;;;25666463;23;20200;-69
2022/07/19 17:13:26;;;;;;;0.20;0.00;;;31.70;99.90;;;;;;25694178;23;20212;-68
2022/07/19 17:23:30;;;;;;;0.20;0.00;;;32.50;99.90;;;;;;25668469;23;20249;-68
2022/07/19 17:33:35;;;;;;;0.20;0.00;;;32.50;99.90;;;;;;25666941;23;20185;-68
2022/07/19 17:43:39;;;;;;;0.20;0.00;;;33.70;99.90;;;;;;25642129;23;20241;-70
2022/07/19 17:53:45;;;;;;;0.20;0.00;;;33.70;99.90;;;;;;25665867;23;20225;-69
2022/07/19 18:03:49;;;;;;;0.20;0.00;;;31.60;99.90;;;;;;25682642;23;20245;-68
2022/07/19 18:13:54;;;;;;;0.20;0.00;;;30.60;99.90;;;;;;25689536;23;20185;-69
2022/07/19 18:23:58;;;;;;;0.20;0.00;;;29.80;99.90;;;;;;25688868;23;20194;-68
2022/07/19 18:34:04;;;;;;;0.20;0.00;;;29.30;99.90;;;;;;25687435;23;20190;-68
2022/07/19 18:44:08;;;;;;;0.20;0.00;;;29.10;99.90;;;;;;25684328;23;20174;-67
2022/07/19 18:54:13;;;;;;;0.20;0.00;;;28.90;99.90;;;;;;25683410;23;20722;-68
2022/07/19 19:04:17;;;;;;;0.20;0.00;;;28.70;99.90;;;;;;25660195;23;20245;-68
2022/07/19 19:14:22;;;;;;;0.20;0.00;;;28.60;99.90;;;;;;25687617;23;20166;-69
2022/07/19 19:24:26;;;;;;;0.20;0.00;;;28.50;99.90;;;;;;25689022;23;20159;-70
2022/07/19 19:34:35;;;;;;;0.20;0.00;;;28.40;99.90;;;;;;25690539;23;20221;-68
2022/07/19 19:44:39;;;;;;;0.20;0.00;;;28.10;99.90;;;;;;25694456;23;20217;-68
2022/07/19 19:54:45;;;;;;;0.20;0.00;;;28.20;99.90;;;;;;25694759;23;20238;-68
2022/07/19 20:04:48;;;;;;;0.20;0.10;;;27.60;99.90;;;;;;25695837;23;20256;-69
2022/07/19 20:14:54;;;;;;;0.20;0.00;;;27.30;99.90;;;;;;25693545;23;20194;-71
2022/07/19 20:24:58;;;;;;;0.20;0.00;;;27.20;99.90;;;;;;25670136;23;20170;-71
2022/07/19 20:35:03;;;;;;;0.20;0.00;;;27.10;99.90;;;;;;25672413;23;20186;-70
2022/07/19 20:45:10;;;;;;;0.20;0.00;;;26.90;99.90;;;;;;25671302;23;20267;-71
2022/07/19 20:55:15;;;;;;;0.20;0.00;;;26.50;99.90;;;;;;25697557;23;20174;-70
2022/07/19 21:05:19;;;;;;;0.20;0.00;;;26.20;99.90;;;;;;25671199;23;20198;-70
2022/07/19 21:15:25;;;;;;;0.20;0.00;;;26.30;99.90;;;;;;25695930;23;20206;-70
2022/07/19 21:25:29;;;;;;;0.20;0.10;;;25.90;99.90;;;;;;25697471;23;20178;-69
2022/07/19 21:35:34;;;;;;;0.20;0.00;;;25.90;99.90;;;;;;25695978;23;20237;-72
2022/07/19 21:45:39;;;;;;;0.20;0.10;;;25.90;99.90;;;;;;25685386;23;20209;-69
2022/07/19 21:55:44;;;;;;;0.20;0.00;;;25.70;99.90;;;;;;25690608;23;20236;-70
2022/07/19 22:05:48;;;;;;;0.20;0.00;;;25.60;99.90;;;;;;25664682;23;20245;-70
2022/07/19 22:15:54;;;;;;;0.20;0.00;;;25.60;99.90;;;;;;25664050;23;20213;-69
2022/07/19 22:25:58;;;;;;;0.20;0.00;;;25.20;99.90;;;;;;25690531;23;20192;-71
2022/07/19 22:36:03;;;;;;;0.20;0.00;;;25.10;99.90;;;;;;25691894;23;20197;-71
2022/07/19 22:46:07;;;;;;;0.20;0.00;;;24.90;99.90;;;;;;25693608;23;20182;-70
2022/07/19 22:56:13;;;;;;;0.20;0.00;;;25.00;99.90;;;;;;25692281;23;20190;-70
2022/07/19 23:06:17;;;;;;;0.20;0.00;;;24.80;99.90;;;;;;25696181;23;20205;-71
2022/07/19 23:16:22;;;;;;;0.20;0.00;;;25.00;99.90;;;;;;25701663;23;20217;-71
2022/07/19 23:26:26;;;;;;;0.20;0.00;;;25.00;99.90;;;;;;25702316;23;20162;-71
2022/07/19 23:36:31;;;;;;;0.20;0.10;;;25.10;99.90;;;;;;25675303;23;20193;-71
2022/07/19 23:46:35;;;;;;;0.20;0.00;;;25.10;99.90;;;;;;25702084;23;20186;-70
2022/07/19 23:56:40;;;;;;;0.20;0.00;;;25.30;99.90;;;;;;25675832;23;20297;-70
